Eagleville, Missouri
Current Conditions -  °F | °C
As of 6:53 PM on Tuesday 21 Oct 2014 (Local Time) from KLWD Reporting Station
Clear Clear  
Wind Chill: 60°   Ceiling: Unl
Heat Index: 60°   Visibility: 10mi
Dew Point: 46°   Wind: 7mph
Humidity: 60%   Direction: 90°E
Pressure: 30.1"   Gusts: NA
Location:  40.47°N, 93.99°W
Report Text: KLWD 212353Z AUTO 09006KT 10SM CLR 16/08 A3010 RMK AO2 SLP196 T01560078 10217 20156 53003
Loading
Personal Weather Stations






























Interactive Weather Map
Tropical Storm Tracking
New forecast layout! Learn more

10-Day Weather Forecast

Advertisements
Track Severe Weather on mobile